Pagrindinis puslapis
METAR-TAF:

METAR-TAF

Oro uostai :

Monte Argentario, Italija

platuma: 42-23N, ilguma: 011-10E, Aukštis: 630 m

Dabartinis oras

Ataskaita buvo paskelbta 2 valandos ir 3 minutes, ne 17:55 UTC
Vėjas 6 kt iš Šiaurės
Temperatūra 19°C
Drėgmė 78%
Slėgis 1017 hPa
Matomumas 10 km arba daugiau
nėra debesų žemiau 1500 m ir nėra kamuolinių lietaus debesų

METAR: LIQO 191755Z 01006KT CAVOK 19/15 Q1017 RMK SCT FEW050 VAL NIL NC VIS MIN 9999

Laikas: 21:58 (19:58 UTC)


TAF: trūkstamas

Orai ataskaitas ir orų prognozės (METAR, TAF).

turimą stotys yra geltonos ir raudonos taškus žemėlapyje.

Perkelti pele per norėdami pamatyti stoties vardą.

Tada spustelėkite, norėdami matyti oro stebėjimo ir prognozės.

Norėdami pakeisti žemėlapį: spustelėkite ant žalios mygtukų su juodo kryžiaus žemyn,; žalią mygtuką su brūkšneliu, jei norite nutolinti; arba žalių rodyklių gretimoms žemėlapius.


METAR-TAF: